createdAt,value
2023-11-15T00:00:08.655Z,10.47
2023-11-15T00:05:10.535Z,10.89
2023-11-15T00:10:12.448Z,10.62
2023-11-15T00:15:15.503Z,10.78
2023-11-15T00:20:17.662Z,10.36
2023-11-15T00:25:19.408Z,10.63
2023-11-15T00:30:21.092Z,10.70
2023-11-15T00:35:23.696Z,10.42
2023-11-15T00:40:25.499Z,11.13
2023-11-15T00:45:27.216Z,10.00
2023-11-15T00:50:28.940Z,10.67
2023-11-15T00:55:30.731Z,10.86
2023-11-15T01:00:40.820Z,10.62
2023-11-15T01:05:42.571Z,10.95
2023-11-15T01:10:44.506Z,10.73
2023-11-15T01:15:46.424Z,10.67
2023-11-15T01:20:48.213Z,10.13
2023-11-15T01:25:49.962Z,10.55
2023-11-15T01:30:51.650Z,10.66
2023-11-15T01:35:53.934Z,10.45
2023-11-15T01:40:55.932Z,10.12
2023-11-15T01:45:57.904Z,10.64
2023-11-15T01:51:01.604Z,10.59
2023-11-15T01:56:04.893Z,10.12
2023-11-15T02:01:09.743Z,10.30
2023-11-15T02:06:12.189Z,10.81
2023-11-15T02:11:14.046Z,11.79
2023-11-15T02:16:15.809Z,11.06
2023-11-15T02:21:18.570Z,11.98
2023-11-15T02:26:21.253Z,11.97
2023-11-15T02:31:23.039Z,10.74
2023-11-15T02:36:25.087Z,10.85
2023-11-15T02:41:27.467Z,11.36
2023-11-15T02:46:30.182Z,10.84
2023-11-15T02:51:32.000Z,10.51
2023-11-15T02:56:33.830Z,10.83
2023-11-15T03:01:35.743Z,10.78
2023-11-15T03:06:37.418Z,11.36
2023-11-15T03:11:39.263Z,11.06
2023-11-15T03:16:42.091Z,10.77
2023-11-15T03:21:43.898Z,11.57
2023-11-15T03:26:45.732Z,11.10
2023-11-15T03:31:47.570Z,11.53
2023-11-15T03:36:49.360Z,10.97
2023-11-15T03:41:51.350Z,10.42
2023-11-15T03:46:53.160Z,10.04
2023-11-15T03:51:55.024Z,10.54
2023-11-15T03:56:56.749Z,10.10
2023-11-15T04:01:58.640Z,10.99
2023-11-15T04:07:01.080Z,10.85
2023-11-15T04:12:03.122Z,10.93
2023-11-15T04:17:05.605Z,11.59
2023-11-15T04:22:13.541Z,9.52
2023-11-15T04:27:16.425Z,10.60
2023-11-15T04:32:18.089Z,10.02
2023-11-15T04:37:20.809Z,10.40
2023-11-15T04:42:22.630Z,10.45
2023-11-15T04:47:25.535Z,9.92
2023-11-15T04:52:27.879Z,10.50
2023-11-15T04:57:30.641Z,10.14
2023-11-15T05:02:32.466Z,9.61
2023-11-15T05:07:35.142Z,10.38
2023-11-15T05:12:37.407Z,10.95
2023-11-15T05:17:39.205Z,10.77
2023-11-15T05:22:41.049Z,9.13
2023-11-15T05:27:42.866Z,9.09
2023-11-15T05:32:45.165Z,9.75
2023-11-15T05:37:47.099Z,10.17
2023-11-15T05:42:48.745Z,9.97
2023-11-15T05:47:50.491Z,10.63
2023-11-15T05:52:53.766Z,10.49
2023-11-15T05:57:55.766Z,9.79
2023-11-15T06:02:57.868Z,10.81
2023-11-15T06:08:02.211Z,10.54
2023-11-15T06:13:07.430Z,10.28
2023-11-15T06:18:12.128Z,9.90
2023-11-15T06:23:14.267Z,9.71
2023-11-15T06:28:15.965Z,9.10
2023-11-15T06:33:17.825Z,10.00
2023-11-15T06:38:20.026Z,9.53
2023-11-15T06:43:22.172Z,8.99
2023-11-15T06:48:25.450Z,9.87
2023-11-15T06:53:27.243Z,9.86
2023-11-15T06:58:28.928Z,9.14
2023-11-15T07:03:30.730Z,9.61
2023-11-15T07:08:33.292Z,9.58
2023-11-15T07:13:36.097Z,9.94
2023-11-15T07:18:38.722Z,9.81
2023-11-15T07:23:43.344Z,9.53
2023-11-15T07:28:48.362Z,9.28
2023-11-15T07:33:52.389Z,10.25
2023-11-15T07:38:54.155Z,10.04
2023-11-15T07:43:55.783Z,10.27
2023-11-15T07:48:59.878Z,10.00
2023-11-15T07:54:02.477Z,10.37
2023-11-15T07:59:05.404Z,10.10
2023-11-15T08:04:07.673Z,9.67
2023-11-15T08:09:10.956Z,11.11
2023-11-15T08:14:12.540Z,11.21
2023-11-15T08:19:14.641Z,10.96
2023-11-15T08:24:22.859Z,10.20
2023-11-15T08:29:24.803Z,10.29
2023-11-15T08:34:28.191Z,10.29
2023-11-15T08:39:29.824Z,10.78
2023-11-15T08:44:31.573Z,10.74
2023-11-15T08:49:33.305Z,11.39
2023-11-15T08:54:35.555Z,10.11
2023-11-15T08:59:37.917Z,11.03
2023-11-15T09:04:40.138Z,10.65
2023-11-15T09:09:43.050Z,11.48
2023-11-15T09:14:45.008Z,11.69
2023-11-15T09:19:50.238Z,10.43
2023-11-15T09:25:03.569Z,12.03
2023-11-15T09:30:10.358Z,11.35
2023-11-15T09:35:13.597Z,11.18
2023-11-15T09:40:15.441Z,10.77
2023-11-15T09:45:21.370Z,10.90
2023-11-15T09:50:28.029Z,12.21
2023-11-15T09:55:30.060Z,11.32
2023-11-15T10:00:31.743Z,11.17
2023-11-15T10:05:33.788Z,10.75
2023-11-15T10:10:35.990Z,11.20
2023-11-15T10:15:37.890Z,11.49
2023-11-15T10:20:42.297Z,11.42
2023-11-15T10:25:53.125Z,11.05
2023-11-15T10:31:05.893Z,11.22
2023-11-15T10:36:18.092Z,11.45
2023-11-15T10:41:21.874Z,11.52
2023-11-15T10:46:32.121Z,11.20
2023-11-15T10:51:45.572Z,11.31
2023-11-15T10:56:51.007Z,11.83
2023-11-15T11:06:28.735Z,9.84
2023-11-15T11:12:13.874Z,9.43
2023-11-15T11:18:03.638Z,9.18
2023-11-15T11:23:12.436Z,9.12
2023-11-15T11:28:15.310Z,9.12
2023-11-15T11:33:20.606Z,9.28
2023-11-15T11:38:39.440Z,8.82
2023-11-15T11:43:43.215Z,9.25
2023-11-15T11:48:45.516Z,8.19
2023-11-15T11:53:49.473Z,9.00
2023-11-15T11:58:51.329Z,8.87
2023-11-15T12:04:00.680Z,9.08
2023-11-15T12:09:02.449Z,9.26
2023-11-15T12:14:05.460Z,9.48
2023-11-15T12:19:11.041Z,9.52
2023-11-15T12:24:14.487Z,9.88
2023-11-15T12:29:36.931Z,8.99
2023-11-15T12:34:39.523Z,9.72
2023-11-15T12:39:41.447Z,10.14
2023-11-15T12:44:46.586Z,9.41
2023-11-15T12:49:48.467Z,9.05
2023-11-15T12:54:57.048Z,9.70
2023-11-15T12:59:58.768Z,10.11
2023-11-15T13:05:04.794Z,9.20
2023-11-15T13:10:07.021Z,9.97
2023-11-15T13:15:14.816Z,10.29
2023-11-15T13:20:16.813Z,10.29
2023-11-15T13:25:18.668Z,10.91
2023-11-15T13:30:21.365Z,10.45
2023-11-15T13:35:23.106Z,9.69
2023-11-15T13:40:25.799Z,11.04
2023-11-15T13:45:28.474Z,10.89
2023-11-15T13:50:30.412Z,10.60
2023-11-15T13:55:32.051Z,11.06
2023-11-15T14:00:38.257Z,11.02
2023-11-15T14:05:44.629Z,10.79
2023-11-15T14:10:46.430Z,9.36
2023-11-15T14:15:48.175Z,10.58
2023-11-15T14:20:53.369Z,10.24
2023-11-15T14:25:55.211Z,10.98
2023-11-15T14:30:56.969Z,10.16
2023-11-15T14:35:58.713Z,11.20
2023-11-15T14:41:02.241Z,10.95
2023-11-15T14:46:04.326Z,10.46
2023-11-15T14:51:06.946Z,10.03
2023-11-15T14:56:09.021Z,10.42
2023-11-15T15:01:10.798Z,11.41
2023-11-15T15:06:13.872Z,9.85
2023-11-15T15:11:15.607Z,10.46
2023-11-15T15:16:22.210Z,10.59
2023-11-15T15:21:24.041Z,10.42
2023-11-15T15:26:25.882Z,10.81
2023-11-15T15:31:27.636Z,10.85
2023-11-15T15:36:29.382Z,10.91
2023-11-15T15:41:31.104Z,10.07
2023-11-15T15:46:34.292Z,10.78
2023-11-15T15:51:36.119Z,10.78
2023-11-15T15:56:37.858Z,10.77
2023-11-15T16:01:39.578Z,10.19
2023-11-15T16:06:41.375Z,11.11
2023-11-15T16:11:43.069Z,11.23
2023-11-15T16:16:48.392Z,10.10
2023-11-15T16:21:50.119Z,10.45
2023-11-15T16:26:51.776Z,10.38
2023-11-15T16:31:53.464Z,11.03
2023-11-15T16:36:55.171Z,10.77
2023-11-15T16:41:56.959Z,10.61
2023-11-15T16:46:58.858Z,10.50
2023-11-15T16:52:01.703Z,10.75
2023-11-15T16:57:06.217Z,9.95
2023-11-15T17:02:08.325Z,10.08
2023-11-15T17:07:10.008Z,10.42
2023-11-15T17:12:13.102Z,9.65
2023-11-15T17:17:17.336Z,10.20
2023-11-15T17:22:20.885Z,10.00
2023-11-15T17:27:25.306Z,10.38
2023-11-15T17:32:29.644Z,9.80
2023-11-15T17:37:32.128Z,9.98
2023-11-15T17:42:34.324Z,10.61
2023-11-15T17:47:36.060Z,10.75
2023-11-15T17:52:41.787Z,10.08
2023-11-15T17:57:45.081Z,9.35
2023-11-15T18:02:47.656Z,9.14
2023-11-15T18:07:49.695Z,9.39
2023-11-15T18:12:51.423Z,8.88
2023-11-15T18:17:54.855Z,9.16
2023-11-15T18:22:58.110Z,8.79
2023-11-15T18:27:59.841Z,8.98
2023-11-15T18:33:01.942Z,9.07
2023-11-15T18:38:05.108Z,9.30
2023-11-15T18:43:07.028Z,9.19
2023-11-15T18:48:10.763Z,8.66
2023-11-15T18:53:14.402Z,9.93
2023-11-15T18:58:16.116Z,8.90
2023-11-15T19:03:17.901Z,9.26
2023-11-15T19:08:19.888Z,9.55
2023-11-15T19:13:22.733Z,9.86
2023-11-15T19:18:25.830Z,9.74
2023-11-15T19:23:27.609Z,9.16
2023-11-15T19:28:29.375Z,10.07
2023-11-15T19:33:31.913Z,8.63
2023-11-15T19:38:34.492Z,9.88
2023-11-15T19:43:37.943Z,9.63
2023-11-15T19:48:39.711Z,9.95
2023-11-15T19:53:41.555Z,10.26
2023-11-15T19:58:44.807Z,9.28
2023-11-15T20:03:48.994Z,9.59
2023-11-15T20:08:50.786Z,9.65
2023-11-15T20:13:52.543Z,10.43
2023-11-15T20:18:55.006Z,10.19
2023-11-15T20:23:56.914Z,9.63
2023-11-15T20:28:58.788Z,10.01
2023-11-15T20:34:06.400Z,9.37
2023-11-15T20:39:21.945Z,9.55
2023-11-15T20:44:26.735Z,9.37
2023-11-15T20:49:28.480Z,8.99
2023-11-15T20:54:33.632Z,9.24
2023-11-15T20:59:37.424Z,10.26
2023-11-15T21:04:40.685Z,11.03
2023-11-15T21:09:43.941Z,9.72
2023-11-15T21:14:45.714Z,9.64
2023-11-15T21:19:47.515Z,9.49
2023-11-15T21:24:49.253Z,10.00
2023-11-15T21:29:50.899Z,9.96
2023-11-15T21:34:52.569Z,8.59
2023-11-15T21:39:54.254Z,8.98
2023-11-15T21:44:56.074Z,9.11
2023-11-15T21:49:57.784Z,9.35
2023-11-15T21:54:59.555Z,9.59
2023-11-15T22:00:02.322Z,9.78
2023-11-15T22:05:04.436Z,8.69
2023-11-15T22:10:13.996Z,9.13
2023-11-15T22:15:20.594Z,9.63
2023-11-15T22:20:22.952Z,9.10
2023-11-15T22:25:24.706Z,9.24
2023-11-15T22:30:26.544Z,8.94
2023-11-15T22:35:28.220Z,8.95
2023-11-15T22:40:29.858Z,8.73
2023-11-15T22:45:32.055Z,7.78
2023-11-15T22:50:36.590Z,9.19
2023-11-15T22:55:38.244Z,8.99
2023-11-15T23:00:40.124Z,9.71
2023-11-15T23:05:42.478Z,8.83
2023-11-15T23:10:44.353Z,9.67
2023-11-15T23:15:49.346Z,8.70
2023-11-15T23:20:52.557Z,7.82
2023-11-15T23:25:54.309Z,10.33
2023-11-15T23:30:56.962Z,10.20
2023-11-15T23:35:58.911Z,10.07
2023-11-15T23:41:00.570Z,9.53
2023-11-15T23:46:03.431Z,10.33
2023-11-15T23:51:06.133Z,9.64
2023-11-15T23:56:08.136Z,8.70
